sensor_id;sensor_type;location;lat;lon;timestamp;P1;durP1;ratioP1;P2;durP2;ratioP2
76284;SDS011;65096;50.998;7.098;2023-02-15T00:01:22;27.15;;;14.07;;
76284;SDS011;65096;50.998;7.098;2023-02-15T00:03:49;29.67;;;13.68;;
76284;SDS011;65096;50.998;7.098;2023-02-15T00:06:15;29.58;;;13.73;;
76284;SDS011;65096;50.998;7.098;2023-02-15T00:08:42;24.83;;;13.23;;
76284;SDS011;65096;50.998;7.098;2023-02-15T00:11:10;25.77;;;13.13;;
76284;SDS011;65096;50.998;7.098;2023-02-15T00:13:39;24.30;;;12.98;;
76284;SDS011;65096;50.998;7.098;2023-02-15T00:16:07;25.10;;;13.05;;
76284;SDS011;65096;50.998;7.098;2023-02-15T00:18:35;26.63;;;13.65;;
76284;SDS011;65096;50.998;7.098;2023-02-15T00:21:03;26.13;;;14.05;;
76284;SDS011;65096;50.998;7.098;2023-02-15T00:23:31;27.77;;;14.48;;
76284;SDS011;65096;50.998;7.098;2023-02-15T00:26:04;30.05;;;14.88;;
76284;SDS011;65096;50.998;7.098;2023-02-15T00:28:32;30.63;;;14.75;;
76284;SDS011;65096;50.998;7.098;2023-02-15T00:31:03;31.40;;;16.02;;
76284;SDS011;65096;50.998;7.098;2023-02-15T00:35:58;29.38;;;14.88;;
76284;SDS011;65096;50.998;7.098;2023-02-15T00:38:25;29.58;;;15.63;;
76284;SDS011;65096;50.998;7.098;2023-02-15T00:40:52;29.23;;;14.55;;
76284;SDS011;65096;50.998;7.098;2023-02-15T00:43:19;26.42;;;13.13;;
76284;SDS011;65096;50.998;7.098;2023-02-15T00:45:46;26.85;;;13.40;;
76284;SDS011;65096;50.998;7.098;2023-02-15T00:48:14;28.80;;;15.27;;
76284;SDS011;65096;50.998;7.098;2023-02-15T00:50:41;29.98;;;15.25;;
76284;SDS011;65096;50.998;7.098;2023-02-15T00:53:10;30.35;;;15.15;;
76284;SDS011;65096;50.998;7.098;2023-02-15T00:55:37;28.75;;;14.82;;
76284;SDS011;65096;50.998;7.098;2023-02-15T00:58:05;31.23;;;15.00;;
76284;SDS011;65096;50.998;7.098;2023-02-15T01:00:31;29.25;;;14.20;;
76284;SDS011;65096;50.998;7.098;2023-02-15T01:02:58;26.35;;;13.73;;
76284;SDS011;65096;50.998;7.098;2023-02-15T01:05:26;26.02;;;13.40;;
76284;SDS011;65096;50.998;7.098;2023-02-15T01:07:54;27.55;;;13.65;;
76284;SDS011;65096;50.998;7.098;2023-02-15T01:10:21;28.25;;;13.63;;
76284;SDS011;65096;50.998;7.098;2023-02-15T01:12:48;26.52;;;13.07;;
76284;SDS011;65096;50.998;7.098;2023-02-15T01:15:16;25.42;;;12.30;;
76284;SDS011;65096;50.998;7.098;2023-02-15T01:17:42;25.38;;;13.15;;
76284;SDS011;65096;50.998;7.098;2023-02-15T01:20:11;25.40;;;12.63;;
76284;SDS011;65096;50.998;7.098;2023-02-15T01:22:39;26.98;;;14.40;;
76284;SDS011;65096;50.998;7.098;2023-02-15T01:25:06;28.20;;;13.38;;
76284;SDS011;65096;50.998;7.098;2023-02-15T01:27:33;27.85;;;14.15;;
76284;SDS011;65096;50.998;7.098;2023-02-15T01:29:59;26.25;;;13.07;;
76284;SDS011;65096;50.998;7.098;2023-02-15T01:32:26;27.00;;;13.05;;
76284;SDS011;65096;50.998;7.098;2023-02-15T01:34:53;28.80;;;13.82;;
76284;SDS011;65096;50.998;7.098;2023-02-15T01:37:19;25.98;;;12.98;;
76284;SDS011;65096;50.998;7.098;2023-02-15T01:39:48;28.13;;;13.48;;
76284;SDS011;65096;50.998;7.098;2023-02-15T01:42:14;27.52;;;13.10;;
76284;SDS011;65096;50.998;7.098;2023-02-15T01:47:16;28.23;;;13.20;;
76284;SDS011;65096;50.998;7.098;2023-02-15T01:49:47;28.88;;;14.13;;
76284;SDS011;65096;50.998;7.098;2023-02-15T01:52:18;26.88;;;13.52;;
76284;SDS011;65096;50.998;7.098;2023-02-15T01:54:45;26.45;;;13.02;;
76284;SDS011;65096;50.998;7.098;2023-02-15T01:57:16;26.75;;;13.13;;
76284;SDS011;65096;50.998;7.098;2023-02-15T01:59:47;28.15;;;13.52;;
76284;SDS011;65096;50.998;7.098;2023-02-15T02:02:19;26.35;;;13.38;;
76284;SDS011;65096;50.998;7.098;2023-02-15T02:04:49;23.83;;;11.95;;
76284;SDS011;65096;50.998;7.098;2023-02-15T02:07:19;26.27;;;12.65;;
76284;SDS011;65096;50.998;7.098;2023-02-15T02:09:49;26.80;;;12.93;;
76284;SDS011;65096;50.998;7.098;2023-02-15T02:12:16;25.95;;;12.25;;
76284;SDS011;65096;50.998;7.098;2023-02-15T02:14:44;28.08;;;12.77;;
76284;SDS011;65096;50.998;7.098;2023-02-15T02:17:15;26.48;;;13.65;;
76284;SDS011;65096;50.998;7.098;2023-02-15T02:29:07;28.15;;;13.27;;
76284;SDS011;65096;50.998;7.098;2023-02-15T02:32:14;25.83;;;12.27;;
76284;SDS011;65096;50.998;7.098;2023-02-15T02:35:00;24.63;;;12.18;;
76284;SDS011;65096;50.998;7.098;2023-02-15T02:37:35;25.88;;;12.65;;
76284;SDS011;65096;50.998;7.098;2023-02-15T02:40:11;26.52;;;12.27;;
76284;SDS011;65096;50.998;7.098;2023-02-15T02:42:47;26.92;;;12.10;;
76284;SDS011;65096;50.998;7.098;2023-02-15T02:45:23;25.73;;;12.73;;
76284;SDS011;65096;50.998;7.098;2023-02-15T02:47:55;26.17;;;12.85;;
76284;SDS011;65096;50.998;7.098;2023-02-15T02:50:29;27.30;;;13.27;;
76284;SDS011;65096;50.998;7.098;2023-02-15T02:52:57;25.98;;;12.07;;
76284;SDS011;65096;50.998;7.098;2023-02-15T02:55:25;24.95;;;12.10;;
76284;SDS011;65096;50.998;7.098;2023-02-15T02:57:57;24.13;;;11.45;;
76284;SDS011;65096;50.998;7.098;2023-02-15T03:00:29;27.38;;;12.75;;
76284;SDS011;65096;50.998;7.098;2023-02-15T03:03:00;24.15;;;12.07;;
76284;SDS011;65096;50.998;7.098;2023-02-15T03:05:31;29.15;;;13.63;;
76284;SDS011;65096;50.998;7.098;2023-02-15T03:08:03;28.13;;;13.63;;
76284;SDS011;65096;50.998;7.098;2023-02-15T03:10:34;26.92;;;13.38;;
76284;SDS011;65096;50.998;7.098;2023-02-15T03:13:04;25.50;;;12.98;;
76284;SDS011;65096;50.998;7.098;2023-02-15T03:15:32;25.80;;;11.63;;
76284;SDS011;65096;50.998;7.098;2023-02-15T03:18:15;26.70;;;13.60;;
76284;SDS011;65096;50.998;7.098;2023-02-15T03:20:44;26.88;;;13.20;;
76284;SDS011;65096;50.998;7.098;2023-02-15T03:23:14;25.40;;;11.85;;
76284;SDS011;65096;50.998;7.098;2023-02-15T03:25:46;25.70;;;12.65;;
76284;SDS011;65096;50.998;7.098;2023-02-15T03:28:17;27.42;;;12.38;;
76284;SDS011;65096;50.998;7.098;2023-02-15T03:30:48;25.88;;;12.55;;
76284;SDS011;65096;50.998;7.098;2023-02-15T03:33:19;27.52;;;12.43;;
76284;SDS011;65096;50.998;7.098;2023-02-15T03:35:53;27.05;;;13.60;;
76284;SDS011;65096;50.998;7.098;2023-02-15T03:38:26;28.10;;;13.15;;
76284;SDS011;65096;50.998;7.098;2023-02-15T03:41:00;26.42;;;13.27;;
76284;SDS011;65096;50.998;7.098;2023-02-15T03:43:37;27.20;;;12.95;;
76284;SDS011;65096;50.998;7.098;2023-02-15T03:46:12;26.40;;;13.18;;
76284;SDS011;65096;50.998;7.098;2023-02-15T03:48:46;24.65;;;12.43;;
76284;SDS011;65096;50.998;7.098;2023-02-15T03:51:20;24.67;;;11.77;;
76284;SDS011;65096;50.998;7.098;2023-02-15T03:54:03;24.65;;;11.40;;
76284;SDS011;65096;50.998;7.098;2023-02-15T03:56:33;26.60;;;13.60;;
76284;SDS011;65096;50.998;7.098;2023-02-15T03:59:04;25.08;;;12.45;;
76284;SDS011;65096;50.998;7.098;2023-02-15T04:01:50;27.30;;;12.50;;
76284;SDS011;65096;50.998;7.098;2023-02-15T04:04:25;24.27;;;12.05;;
76284;SDS011;65096;50.998;7.098;2023-02-15T04:09:24;27.15;;;12.48;;
76284;SDS011;65096;50.998;7.098;2023-02-15T04:12:08;27.88;;;13.13;;
76284;SDS011;65096;50.998;7.098;2023-02-15T04:14:35;25.27;;;11.65;;
76284;SDS011;65096;50.998;7.098;2023-02-15T04:17:19;25.08;;;12.55;;
76284;SDS011;65096;50.998;7.098;2023-02-15T04:19:46;28.77;;;12.20;;
76284;SDS011;65096;50.998;7.098;2023-02-15T04:22:32;27.20;;;12.52;;
76284;SDS011;65096;50.998;7.098;2023-02-15T04:25:16;28.05;;;13.10;;
76284;SDS011;65096;50.998;7.098;2023-02-15T04:27:44;25.52;;;11.57;;
76284;SDS011;65096;50.998;7.098;2023-02-15T04:30:12;25.63;;;12.60;;
76284;SDS011;65096;50.998;7.098;2023-02-15T04:32:40;26.60;;;12.07;;
76284;SDS011;65096;50.998;7.098;2023-02-15T04:35:07;27.25;;;12.93;;
76284;SDS011;65096;50.998;7.098;2023-02-15T04:37:35;26.92;;;12.98;;
76284;SDS011;65096;50.998;7.098;2023-02-15T04:40:02;27.73;;;12.65;;
76284;SDS011;65096;50.998;7.098;2023-02-15T04:42:30;26.92;;;13.30;;
76284;SDS011;65096;50.998;7.098;2023-02-15T04:44:57;24.35;;;12.43;;
76284;SDS011;65096;50.998;7.098;2023-02-15T04:47:24;25.38;;;11.80;;
76284;SDS011;65096;50.998;7.098;2023-02-15T04:49:51;27.45;;;13.05;;
76284;SDS011;65096;50.998;7.098;2023-02-15T04:52:18;25.20;;;11.95;;
76284;SDS011;65096;50.998;7.098;2023-02-15T04:54:46;26.30;;;12.77;;
76284;SDS011;65096;50.998;7.098;2023-02-15T04:57:12;26.33;;;12.77;;
76284;SDS011;65096;50.998;7.098;2023-02-15T04:59:39;28.50;;;13.38;;
76284;SDS011;65096;50.998;7.098;2023-02-15T05:02:06;27.52;;;12.68;;
76284;SDS011;65096;50.998;7.098;2023-02-15T05:04:34;29.15;;;13.05;;
76284;SDS011;65096;50.998;7.098;2023-02-15T05:07:00;26.02;;;11.88;;
76284;SDS011;65096;50.998;7.098;2023-02-15T05:09:27;26.77;;;12.65;;
76284;SDS011;65096;50.998;7.098;2023-02-15T05:11:55;27.42;;;11.90;;
76284;SDS011;65096;50.998;7.098;2023-02-15T05:14:22;27.30;;;12.57;;
76284;SDS011;65096;50.998;7.098;2023-02-15T05:16:48;28.33;;;13.32;;
76284;SDS011;65096;50.998;7.098;2023-02-15T05:19:15;25.92;;;11.55;;
76284;SDS011;65096;50.998;7.098;2023-02-15T05:21:42;25.77;;;11.90;;
76284;SDS011;65096;50.998;7.098;2023-02-15T05:24:08;27.20;;;12.38;;
76284;SDS011;65096;50.998;7.098;2023-02-15T05:26:49;24.80;;;11.95;;
76284;SDS011;65096;50.998;7.098;2023-02-15T05:29:31;24.85;;;12.13;;
76284;SDS011;65096;50.998;7.098;2023-02-15T05:31:58;29.10;;;12.70;;
76284;SDS011;65096;50.998;7.098;2023-02-15T05:34:24;23.92;;;12.05;;
76284;SDS011;65096;50.998;7.098;2023-02-15T05:36:51;25.77;;;11.75;;
76284;SDS011;65096;50.998;7.098;2023-02-15T05:39:18;27.55;;;13.23;;
76284;SDS011;65096;50.998;7.098;2023-02-15T05:41:44;27.63;;;11.68;;
76284;SDS011;65096;50.998;7.098;2023-02-15T05:44:11;30.08;;;13.13;;
76284;SDS011;65096;50.998;7.098;2023-02-15T05:46:39;26.17;;;12.80;;
76284;SDS011;65096;50.998;7.098;2023-02-15T05:49:06;25.65;;;11.73;;
76284;SDS011;65096;50.998;7.098;2023-02-15T05:51:32;26.67;;;12.95;;
76284;SDS011;65096;50.998;7.098;2023-02-15T05:53:59;30.20;;;12.98;;
76284;SDS011;65096;50.998;7.098;2023-02-15T05:56:26;26.35;;;12.57;;
76284;SDS011;65096;50.998;7.098;2023-02-15T05:58:52;27.02;;;12.88;;
76284;SDS011;65096;50.998;7.098;2023-02-15T06:01:20;26.15;;;12.10;;
76284;SDS011;65096;50.998;7.098;2023-02-15T06:03:49;26.80;;;11.85;;
76284;SDS011;65096;50.998;7.098;2023-02-15T06:06:16;26.58;;;11.93;;
76284;SDS011;65096;50.998;7.098;2023-02-15T06:08:43;29.25;;;12.68;;
76284;SDS011;65096;50.998;7.098;2023-02-15T06:11:10;25.65;;;12.80;;
76284;SDS011;65096;50.998;7.098;2023-02-15T06:13:37;27.90;;;11.93;;
76284;SDS011;65096;50.998;7.098;2023-02-15T06:16:03;25.20;;;11.65;;
76284;SDS011;65096;50.998;7.098;2023-02-15T06:18:30;26.25;;;12.15;;
76284;SDS011;65096;50.998;7.098;2023-02-15T06:20:59;25.90;;;12.13;;
76284;SDS011;65096;50.998;7.098;2023-02-15T06:23:25;26.85;;;13.07;;
76284;SDS011;65096;50.998;7.098;2023-02-15T06:25:52;27.92;;;12.82;;
76284;SDS011;65096;50.998;7.098;2023-02-15T06:28:19;25.33;;;12.05;;
76284;SDS011;65096;50.998;7.098;2023-02-15T06:30:46;25.23;;;11.27;;
76284;SDS011;65096;50.998;7.098;2023-02-15T06:33:12;27.50;;;12.25;;
76284;SDS011;65096;50.998;7.098;2023-02-15T06:35:39;26.50;;;12.35;;
76284;SDS011;65096;50.998;7.098;2023-02-15T06:38:07;26.77;;;11.75;;
76284;SDS011;65096;50.998;7.098;2023-02-15T06:40:34;25.48;;;12.20;;
76284;SDS011;65096;50.998;7.098;2023-02-15T06:43:00;24.65;;;11.73;;
76284;SDS011;65096;50.998;7.098;2023-02-15T06:45:27;29.52;;;13.00;;
76284;SDS011;65096;50.998;7.098;2023-02-15T06:47:54;27.20;;;12.45;;
76284;SDS011;65096;50.998;7.098;2023-02-15T06:50:21;26.73;;;11.82;;
76284;SDS011;65096;50.998;7.098;2023-02-15T06:52:47;30.48;;;13.02;;
76284;SDS011;65096;50.998;7.098;2023-02-15T06:55:15;27.05;;;12.27;;
76284;SDS011;65096;50.998;7.098;2023-02-15T06:57:42;26.73;;;12.68;;
76284;SDS011;65096;50.998;7.098;2023-02-15T07:00:09;27.88;;;12.25;;
76284;SDS011;65096;50.998;7.098;2023-02-15T07:02:37;28.88;;;13.13;;
76284;SDS011;65096;50.998;7.098;2023-02-15T07:05:03;27.52;;;12.75;;
76284;SDS011;65096;50.998;7.098;2023-02-15T07:07:30;27.08;;;13.05;;
76284;SDS011;65096;50.998;7.098;2023-02-15T07:09:57;30.25;;;13.32;;
76284;SDS011;65096;50.998;7.098;2023-02-15T07:12:25;29.88;;;13.77;;
76284;SDS011;65096;50.998;7.098;2023-02-15T07:15:11;29.52;;;13.32;;
76284;SDS011;65096;50.998;7.098;2023-02-15T07:17:39;25.15;;;12.05;;
76284;SDS011;65096;50.998;7.098;2023-02-15T07:20:07;27.10;;;12.73;;
76284;SDS011;65096;50.998;7.098;2023-02-15T07:22:35;29.48;;;13.13;;
76284;SDS011;65096;50.998;7.098;2023-02-15T07:25:02;30.42;;;13.27;;
76284;SDS011;65096;50.998;7.098;2023-02-15T07:27:31;26.35;;;12.75;;
76284;SDS011;65096;50.998;7.098;2023-02-15T07:29:58;27.27;;;12.82;;
76284;SDS011;65096;50.998;7.098;2023-02-15T07:32:27;23.38;;;11.10;;
76284;SDS011;65096;50.998;7.098;2023-02-15T07:34:56;26.85;;;11.73;;
76284;SDS011;65096;50.998;7.098;2023-02-15T07:37:23;26.65;;;11.85;;
76284;SDS011;65096;50.998;7.098;2023-02-15T07:39:50;23.65;;;11.52;;
76284;SDS011;65096;50.998;7.098;2023-02-15T07:42:17;23.38;;;11.10;;
76284;SDS011;65096;50.998;7.098;2023-02-15T07:44:46;23.48;;;11.52;;
76284;SDS011;65096;50.998;7.098;2023-02-15T07:47:12;24.95;;;11.40;;
76284;SDS011;65096;50.998;7.098;2023-02-15T07:49:39;23.08;;;11.63;;
76284;SDS011;65096;50.998;7.098;2023-02-15T07:52:06;21.92;;;10.80;;
76284;SDS011;65096;50.998;7.098;2023-02-15T07:54:33;21.13;;;10.65;;
76284;SDS011;65096;50.998;7.098;2023-02-15T07:57:00;21.75;;;10.40;;
76284;SDS011;65096;50.998;7.098;2023-02-15T07:59:27;21.83;;;10.45;;
76284;SDS011;65096;50.998;7.098;2023-02-15T08:01:55;21.83;;;10.50;;
76284;SDS011;65096;50.998;7.098;2023-02-15T08:04:22;22.52;;;10.52;;
76284;SDS011;65096;50.998;7.098;2023-02-15T08:06:51;22.15;;;9.88;;
76284;SDS011;65096;50.998;7.098;2023-02-15T08:09:19;21.33;;;10.85;;
76284;SDS011;65096;50.998;7.098;2023-02-15T08:11:46;18.75;;;9.40;;
76284;SDS011;65096;50.998;7.098;2023-02-15T08:14:13;22.40;;;10.15;;
76284;SDS011;65096;50.998;7.098;2023-02-15T08:16:42;21.55;;;10.02;;
76284;SDS011;65096;50.998;7.098;2023-02-15T08:19:12;21.48;;;9.73;;
76284;SDS011;65096;50.998;7.098;2023-02-15T08:21:40;20.15;;;9.23;;
76284;SDS011;65096;50.998;7.098;2023-02-15T08:24:09;21.70;;;9.30;;
76284;SDS011;65096;50.998;7.098;2023-02-15T08:26:36;23.90;;;9.82;;
76284;SDS011;65096;50.998;7.098;2023-02-15T08:29:04;18.38;;;9.27;;
76284;SDS011;65096;50.998;7.098;2023-02-15T08:31:32;20.52;;;9.43;;
76284;SDS011;65096;50.998;7.098;2023-02-15T08:34:00;16.08;;;9.10;;
76284;SDS011;65096;50.998;7.098;2023-02-15T08:36:29;18.92;;;9.90;;
76284;SDS011;65096;50.998;7.098;2023-02-15T08:38:57;18.30;;;8.98;;
76284;SDS011;65096;50.998;7.098;2023-02-15T08:41:26;16.98;;;9.10;;
76284;SDS011;65096;50.998;7.098;2023-02-15T08:43:56;17.73;;;10.00;;
76284;SDS011;65096;50.998;7.098;2023-02-15T08:46:25;17.85;;;9.02;;
76284;SDS011;65096;50.998;7.098;2023-02-15T08:48:53;18.17;;;9.15;;
76284;SDS011;65096;50.998;7.098;2023-02-15T08:51:21;17.15;;;8.77;;
76284;SDS011;65096;50.998;7.098;2023-02-15T08:53:51;16.38;;;7.82;;
76284;SDS011;65096;50.998;7.098;2023-02-15T08:56:19;19.88;;;9.10;;
76284;SDS011;65096;50.998;7.098;2023-02-15T08:58:47;20.02;;;9.15;;
76284;SDS011;65096;50.998;7.098;2023-02-15T09:01:16;15.40;;;7.15;;
76284;SDS011;65096;50.998;7.098;2023-02-15T09:03:45;17.70;;;8.90;;
76284;SDS011;65096;50.998;7.098;2023-02-15T09:06:13;16.98;;;8.30;;
76284;SDS011;65096;50.998;7.098;2023-02-15T09:08:40;16.05;;;8.07;;
76284;SDS011;65096;50.998;7.098;2023-02-15T09:11:12;17.08;;;9.20;;
76284;SDS011;65096;50.998;7.098;2023-02-15T09:13:41;15.57;;;8.00;;
76284;SDS011;65096;50.998;7.098;2023-02-15T09:16:09;16.80;;;8.57;;
76284;SDS011;65096;50.998;7.098;2023-02-15T09:18:37;17.15;;;8.70;;
76284;SDS011;65096;50.998;7.098;2023-02-15T09:21:05;17.13;;;8.38;;
76284;SDS011;65096;50.998;7.098;2023-02-15T09:23:33;16.10;;;8.32;;
76284;SDS011;65096;50.998;7.098;2023-02-15T09:26:04;17.73;;;8.63;;
76284;SDS011;65096;50.998;7.098;2023-02-15T09:28:33;15.38;;;8.35;;
76284;SDS011;65096;50.998;7.098;2023-02-15T09:31:07;16.05;;;7.93;;
76284;SDS011;65096;50.998;7.098;2023-02-15T09:33:36;17.60;;;8.32;;
76284;SDS011;65096;50.998;7.098;2023-02-15T09:36:04;14.13;;;7.63;;
76284;SDS011;65096;50.998;7.098;2023-02-15T09:38:31;16.58;;;8.63;;
76284;SDS011;65096;50.998;7.098;2023-02-15T09:41:03;15.45;;;8.30;;
76284;SDS011;65096;50.998;7.098;2023-02-15T09:43:48;13.40;;;7.25;;
76284;SDS011;65096;50.998;7.098;2023-02-15T09:46:27;15.35;;;7.38;;
76284;SDS011;65096;50.998;7.098;2023-02-15T09:49:06;15.40;;;8.00;;
76284;SDS011;65096;50.998;7.098;2023-02-15T09:51:53;16.95;;;7.82;;
76284;SDS011;65096;50.998;7.098;2023-02-15T09:54:45;15.30;;;8.18;;
76284;SDS011;65096;50.998;7.098;2023-02-15T09:57:24;14.98;;;7.68;;
76284;SDS011;65096;50.998;7.098;2023-02-15T10:00:01;15.30;;;7.50;;
76284;SDS011;65096;50.998;7.098;2023-02-15T10:02:38;14.07;;;6.85;;
76284;SDS011;65096;50.998;7.098;2023-02-15T10:05:21;16.08;;;8.63;;
76284;SDS011;65096;50.998;7.098;2023-02-15T10:08:10;16.00;;;8.63;;
76284;SDS011;65096;50.998;7.098;2023-02-15T10:10:51;17.70;;;8.85;;
76284;SDS011;65096;50.998;7.098;2023-02-15T10:13:44;16.17;;;7.88;;
76284;SDS011;65096;50.998;7.098;2023-02-15T10:16:26;17.63;;;9.52;;
76284;SDS011;65096;50.998;7.098;2023-02-15T10:19:02;14.68;;;7.97;;
76284;SDS011;65096;50.998;7.098;2023-02-15T10:21:38;15.95;;;8.32;;
76284;SDS011;65096;50.998;7.098;2023-02-15T10:24:17;14.75;;;7.35;;
76284;SDS011;65096;50.998;7.098;2023-02-15T10:27:01;14.15;;;7.82;;
76284;SDS011;65096;50.998;7.098;2023-02-15T10:29:35;16.52;;;8.45;;
76284;SDS011;65096;50.998;7.098;2023-02-15T10:32:08;14.70;;;7.70;;
76284;SDS011;65096;50.998;7.098;2023-02-15T10:34:48;15.45;;;8.43;;
76284;SDS011;65096;50.998;7.098;2023-02-15T10:40:14;15.65;;;8.02;;
76284;SDS011;65096;50.998;7.098;2023-02-15T10:42:58;16.30;;;9.20;;
76284;SDS011;65096;50.998;7.098;2023-02-15T10:45:48;15.38;;;8.35;;
76284;SDS011;65096;50.998;7.098;2023-02-15T10:48:34;16.30;;;8.43;;
76284;SDS011;65096;50.998;7.098;2023-02-15T10:51:13;15.45;;;8.55;;
76284;SDS011;65096;50.998;7.098;2023-02-15T10:53:51;16.48;;;8.85;;
76284;SDS011;65096;50.998;7.098;2023-02-15T10:56:34;14.98;;;8.93;;
76284;SDS011;65096;50.998;7.098;2023-02-15T10:59:10;15.93;;;8.27;;
76284;SDS011;65096;50.998;7.098;2023-02-15T11:01:51;16.83;;;8.43;;
76284;SDS011;65096;50.998;7.098;2023-02-15T11:04:39;16.13;;;8.35;;
76284;SDS011;65096;50.998;7.098;2023-02-15T11:07:14;15.13;;;7.15;;
76284;SDS011;65096;50.998;7.098;2023-02-15T11:09:46;13.90;;;7.93;;
76284;SDS011;65096;50.998;7.098;2023-02-15T11:12:16;18.02;;;9.45;;
76284;SDS011;65096;50.998;7.098;2023-02-15T11:14:48;13.90;;;8.13;;
76284;SDS011;65096;50.998;7.098;2023-02-15T11:17:22;15.43;;;8.93;;
76284;SDS011;65096;50.998;7.098;2023-02-15T11:19:56;16.63;;;9.05;;
76284;SDS011;65096;50.998;7.098;2023-02-15T11:22:28;17.27;;;8.95;;
76284;SDS011;65096;50.998;7.098;2023-02-15T11:24:58;14.45;;;8.00;;
76284;SDS011;65096;50.998;7.098;2023-02-15T11:27:28;15.02;;;8.77;;
76284;SDS011;65096;50.998;7.098;2023-02-15T11:29:59;15.82;;;9.27;;
76284;SDS011;65096;50.998;7.098;2023-02-15T11:32:30;15.85;;;8.85;;
76284;SDS011;65096;50.998;7.098;2023-02-15T11:35:01;17.88;;;9.93;;
76284;SDS011;65096;50.998;7.098;2023-02-15T11:37:34;14.75;;;8.00;;
76284;SDS011;65096;50.998;7.098;2023-02-15T11:40:12;15.52;;;8.52;;
76284;SDS011;65096;50.998;7.098;2023-02-15T11:42:45;14.75;;;9.10;;
76284;SDS011;65096;50.998;7.098;2023-02-15T11:45:18;14.73;;;8.75;;
76284;SDS011;65096;50.998;7.098;2023-02-15T11:47:49;17.08;;;9.88;;
76284;SDS011;65096;50.998;7.098;2023-02-15T11:50:18;17.88;;;9.68;;
76284;SDS011;65096;50.998;7.098;2023-02-15T11:52:48;17.38;;;9.02;;
76284;SDS011;65096;50.998;7.098;2023-02-15T11:55:17;16.30;;;8.50;;
76284;SDS011;65096;50.998;7.098;2023-02-15T11:57:48;13.82;;;8.07;;
76284;SDS011;65096;50.998;7.098;2023-02-15T12:00:25;16.40;;;8.45;;
76284;SDS011;65096;50.998;7.098;2023-02-15T12:03:01;15.88;;;8.88;;
76284;SDS011;65096;50.998;7.098;2023-02-15T12:05:33;15.20;;;8.95;;
76284;SDS011;65096;50.998;7.098;2023-02-15T12:08:03;16.52;;;9.10;;
76284;SDS011;65096;50.998;7.098;2023-02-15T12:10:40;17.08;;;9.18;;
76284;SDS011;65096;50.998;7.098;2023-02-15T12:13:13;14.50;;;8.85;;
76284;SDS011;65096;50.998;7.098;2023-02-15T12:15:42;14.95;;;8.57;;
76284;SDS011;65096;50.998;7.098;2023-02-15T12:18:17;16.92;;;9.52;;
76284;SDS011;65096;50.998;7.098;2023-02-15T12:20:49;18.02;;;9.38;;
76284;SDS011;65096;50.998;7.098;2023-02-15T12:23:16;14.73;;;8.48;;
76284;SDS011;65096;50.998;7.098;2023-02-15T12:25:49;16.65;;;8.13;;
76284;SDS011;65096;50.998;7.098;2023-02-15T12:28:23;18.27;;;10.10;;
76284;SDS011;65096;50.998;7.098;2023-02-15T12:30:53;14.80;;;9.15;;
76284;SDS011;65096;50.998;7.098;2023-02-15T12:33:24;17.08;;;8.95;;
76284;SDS011;65096;50.998;7.098;2023-02-15T12:35:58;14.93;;;7.75;;
76284;SDS011;65096;50.998;7.098;2023-02-15T12:38:27;16.85;;;8.48;;
76284;SDS011;65096;50.998;7.098;2023-02-15T12:40:56;14.43;;;8.20;;
76284;SDS011;65096;50.998;7.098;2023-02-15T12:43:25;15.18;;;8.05;;
76284;SDS011;65096;50.998;7.098;2023-02-15T12:45:53;17.70;;;9.07;;
76284;SDS011;65096;50.998;7.098;2023-02-15T12:48:39;15.73;;;8.02;;
76284;SDS011;65096;50.998;7.098;2023-02-15T12:51:08;17.02;;;8.65;;
76284;SDS011;65096;50.998;7.098;2023-02-15T12:53:35;15.55;;;8.73;;
76284;SDS011;65096;50.998;7.098;2023-02-15T12:56:03;15.25;;;9.13;;
76284;SDS011;65096;50.998;7.098;2023-02-15T12:58:32;16.65;;;8.90;;
76284;SDS011;65096;50.998;7.098;2023-02-15T13:01:04;16.90;;;8.73;;
76284;SDS011;65096;50.998;7.098;2023-02-15T13:03:38;16.35;;;9.10;;
76284;SDS011;65096;50.998;7.098;2023-02-15T13:06:19;14.52;;;8.93;;
76284;SDS011;65096;50.998;7.098;2023-02-15T13:08:47;15.77;;;9.00;;
76284;SDS011;65096;50.998;7.098;2023-02-15T13:11:19;14.18;;;8.75;;
76284;SDS011;65096;50.998;7.098;2023-02-15T13:13:50;15.23;;;8.45;;
76284;SDS011;65096;50.998;7.098;2023-02-15T13:16:21;16.23;;;8.38;;
76284;SDS011;65096;50.998;7.098;2023-02-15T13:18:56;14.07;;;8.77;;
76284;SDS011;65096;50.998;7.098;2023-02-15T13:21:26;15.50;;;9.32;;
76284;SDS011;65096;50.998;7.098;2023-02-15T13:24:05;16.13;;;9.25;;
76284;SDS011;65096;50.998;7.098;2023-02-15T13:26:41;16.80;;;8.27;;
76284;SDS011;65096;50.998;7.098;2023-02-15T13:29:12;17.92;;;9.18;;
76284;SDS011;65096;50.998;7.098;2023-02-15T13:31:44;16.88;;;8.75;;
76284;SDS011;65096;50.998;7.098;2023-02-15T13:34:12;16.05;;;8.93;;
76284;SDS011;65096;50.998;7.098;2023-02-15T13:36:46;16.10;;;8.60;;
76284;SDS011;65096;50.998;7.098;2023-02-15T13:39:20;15.45;;;8.18;;
76284;SDS011;65096;50.998;7.098;2023-02-15T13:41:56;19.58;;;8.43;;
76284;SDS011;65096;50.998;7.098;2023-02-15T13:44:38;16.33;;;9.23;;
76284;SDS011;65096;50.998;7.098;2023-02-15T13:47:21;15.23;;;8.20;;
76284;SDS011;65096;50.998;7.098;2023-02-15T13:49:57;15.25;;;8.90;;
76284;SDS011;65096;50.998;7.098;2023-02-15T13:52:39;16.42;;;8.98;;
76284;SDS011;65096;50.998;7.098;2023-02-15T13:55:25;17.40;;;9.40;;
76284;SDS011;65096;50.998;7.098;2023-02-15T13:58:07;16.52;;;8.68;;
76284;SDS011;65096;50.998;7.098;2023-02-15T14:00:56;16.33;;;9.13;;
76284;SDS011;65096;50.998;7.098;2023-02-15T14:06:49;18.65;;;10.75;;
76284;SDS011;65096;50.998;7.098;2023-02-15T14:09:38;17.23;;;8.90;;
76284;SDS011;65096;50.998;7.098;2023-02-15T14:12:19;16.48;;;8.80;;
76284;SDS011;65096;50.998;7.098;2023-02-15T14:15:03;18.58;;;9.23;;
76284;SDS011;65096;50.998;7.098;2023-02-15T14:17:42;18.13;;;9.85;;
76284;SDS011;65096;50.998;7.098;2023-02-15T14:20:18;18.90;;;11.32;;
76284;SDS011;65096;50.998;7.098;2023-02-15T14:22:52;17.42;;;9.98;;
76284;SDS011;65096;50.998;7.098;2023-02-15T14:25:27;16.90;;;9.43;;
76284;SDS011;65096;50.998;7.098;2023-02-15T14:28:01;18.45;;;9.65;;
76284;SDS011;65096;50.998;7.098;2023-02-15T14:30:34;17.58;;;9.93;;
76284;SDS011;65096;50.998;7.098;2023-02-15T14:33:04;17.25;;;9.85;;
76284;SDS011;65096;50.998;7.098;2023-02-15T14:35:33;16.65;;;9.65;;
76284;SDS011;65096;50.998;7.098;2023-02-15T14:38:04;18.00;;;9.27;;
76284;SDS011;65096;50.998;7.098;2023-02-15T14:40:42;16.23;;;8.77;;
76284;SDS011;65096;50.998;7.098;2023-02-15T14:43:34;17.27;;;10.25;;
76284;SDS011;65096;50.998;7.098;2023-02-15T14:46:10;16.27;;;8.93;;
76284;SDS011;65096;50.998;7.098;2023-02-15T14:48:46;18.45;;;9.15;;
76284;SDS011;65096;50.998;7.098;2023-02-15T14:57:23;16.27;;;8.77;;
76284;SDS011;65096;50.998;7.098;2023-02-15T14:59:53;18.70;;;9.65;;
76284;SDS011;65096;50.998;7.098;2023-02-15T15:02:24;16.98;;;9.52;;
76284;SDS011;65096;50.998;7.098;2023-02-15T15:04:56;17.05;;;9.05;;
76284;SDS011;65096;50.998;7.098;2023-02-15T15:07:27;16.85;;;9.07;;
76284;SDS011;65096;50.998;7.098;2023-02-15T15:10:03;18.00;;;9.45;;
76284;SDS011;65096;50.998;7.098;2023-02-15T15:12:42;16.30;;;9.30;;
76284;SDS011;65096;50.998;7.098;2023-02-15T15:15:11;18.30;;;9.77;;
76284;SDS011;65096;50.998;7.098;2023-02-15T15:17:54;17.20;;;9.70;;
76284;SDS011;65096;50.998;7.098;2023-02-15T15:20:42;19.20;;;9.45;;
76284;SDS011;65096;50.998;7.098;2023-02-15T15:26:20;18.42;;;10.18;;